Terminal Aerodrome Forecast
Issued by NWS

Home | Current Version | Previous Version | Text Only | Print | Product List | Glossary On
Versions: 1 2 3 4 5 6 7 8 9 10 11 12 13 14 15 16
000
FTUS44 KBMX 221720
TAFTOI
TAF
KTOI 221720Z 2218/2318 20003KT P6SM VCTS SCT040CB
     FM230000 23002KT P6SM BKN050
     FM230900 00000KT 4SM BR SCT002
     FM231400 26004KT P6SM SCT040=

USA.gov is the U.S. government's official web portal to all federal, state and local government web resources and services.